createdAt,value
2022-07-25T00:01:45.822Z,53.51
2022-07-25T00:04:14.406Z,53.60
2022-07-25T00:06:42.739Z,53.68
2022-07-25T00:09:09.811Z,53.82
2022-07-25T00:11:36.520Z,53.98
2022-07-25T00:14:04.403Z,53.97
2022-07-25T00:16:31.658Z,54.24
2022-07-25T00:18:58.365Z,54.46
2022-07-25T00:21:24.984Z,54.81
2022-07-25T00:23:51.576Z,54.80
2022-07-25T00:26:18.254Z,55.41
2022-07-25T00:28:44.932Z,55.53
2022-07-25T00:31:11.521Z,55.68
2022-07-25T00:33:40.151Z,55.80
2022-07-25T00:36:08.557Z,55.89
2022-07-25T00:38:35.246Z,56.11
2022-07-25T00:41:03.772Z,56.44
2022-07-25T00:43:30.423Z,56.67
2022-07-25T00:45:58.880Z,56.91
2022-07-25T00:48:27.470Z,57.32
2022-07-25T00:50:54.512Z,57.56
2022-07-25T00:53:21.931Z,57.71
2022-07-25T00:55:48.619Z,57.54
2022-07-25T00:58:15.185Z,57.41
2022-07-25T01:00:41.971Z,57.50
2022-07-25T01:03:08.667Z,57.67
2022-07-25T01:05:35.309Z,57.71
2022-07-25T01:08:02.891Z,58.01
2022-07-25T01:10:32.298Z,58.09
2022-07-25T01:12:59.043Z,58.40
2022-07-25T01:15:25.910Z,58.48
2022-07-25T01:17:52.845Z,58.41
2022-07-25T01:20:20.774Z,58.32
2022-07-25T01:22:49.113Z,58.60
2022-07-25T01:25:16.645Z,58.70
2022-07-25T01:27:44.085Z,58.89
2022-07-25T01:30:15.350Z,58.71
2022-07-25T01:32:43.330Z,59.14
2022-07-25T01:35:10.685Z,59.19
2022-07-25T01:37:37.504Z,59.26
2022-07-25T01:40:05.610Z,59.73
2022-07-25T01:42:32.585Z,59.67
2022-07-25T01:44:59.419Z,59.85
2022-07-25T01:47:26.214Z,59.64
2022-07-25T01:49:52.866Z,60.01
2022-07-25T01:52:19.457Z,60.25
2022-07-25T01:54:46.026Z,60.45
2022-07-25T01:57:15.180Z,60.61
2022-07-25T01:59:43.551Z,61.04
2022-07-25T02:02:10.825Z,60.94
2022-07-25T02:04:37.645Z,61.37
2022-07-25T02:07:06.154Z,61.41
2022-07-25T02:09:33.071Z,61.38
2022-07-25T02:11:59.692Z,61.20
2022-07-25T02:14:26.294Z,61.25
2022-07-25T02:16:52.953Z,61.56
2022-07-25T02:19:19.545Z,61.96
2022-07-25T02:21:46.145Z,61.95
2022-07-25T02:24:12.759Z,62.00
2022-07-25T02:26:39.278Z,62.24
2022-07-25T02:29:05.832Z,61.93
2022-07-25T02:31:32.420Z,62.16
2022-07-25T02:33:59.075Z,62.39
2022-07-25T02:36:25.607Z,62.71
2022-07-25T02:38:52.137Z,63.04
2022-07-25T02:41:18.695Z,63.23
2022-07-25T02:43:45.273Z,63.11
2022-07-25T02:46:11.962Z,63.39
2022-07-25T02:48:38.660Z,63.88
2022-07-25T02:51:05.540Z,63.93
2022-07-25T02:53:54.769Z,64.01
2022-07-25T02:56:18.718Z,63.97
2022-07-25T02:58:47.996Z,63.71
2022-07-25T03:01:14.769Z,64.05
2022-07-25T03:03:41.632Z,63.57
2022-07-25T03:06:08.394Z,63.67
2022-07-25T03:08:35.041Z,63.36
2022-07-25T03:11:01.689Z,63.32
2022-07-25T03:13:28.412Z,62.95
2022-07-25T03:15:55.927Z,62.78
2022-07-25T03:18:22.558Z,61.99
2022-07-25T03:20:49.207Z,61.54
2022-07-25T03:23:15.741Z,61.85
2022-07-25T03:25:42.288Z,62.11
2022-07-25T03:28:08.893Z,62.04
2022-07-25T03:30:35.661Z,62.59
2022-07-25T03:33:02.305Z,63.01
2022-07-25T03:35:28.981Z,62.58
2022-07-25T03:37:55.640Z,62.39
2022-07-25T03:40:22.717Z,62.79
2022-07-25T03:42:49.302Z,62.97
2022-07-25T03:45:16.844Z,63.34
2022-07-25T03:47:43.526Z,63.33
2022-07-25T03:50:10.785Z,63.23
2022-07-25T03:52:38.494Z,63.18
2022-07-25T03:55:09.861Z,62.83
2022-07-25T03:57:36.877Z,63.38
2022-07-25T04:00:05.672Z,63.81
2022-07-25T04:02:32.530Z,63.71
2022-07-25T04:04:59.124Z,63.63
2022-07-25T04:07:25.823Z,63.46
2022-07-25T04:09:52.379Z,63.50
2022-07-25T04:12:19.053Z,63.81
2022-07-25T04:14:45.697Z,63.52
2022-07-25T04:17:12.503Z,64.11
2022-07-25T04:19:39.530Z,64.04
2022-07-25T04:22:06.330Z,64.35
2022-07-25T04:24:32.990Z,64.80
2022-07-25T04:26:59.571Z,64.92
2022-07-25T04:29:26.193Z,65.18
2022-07-25T04:31:52.809Z,65.09
2022-07-25T04:34:19.537Z,65.16
2022-07-25T04:36:46.130Z,65.42
2022-07-25T04:39:12.695Z,65.62
2022-07-25T04:41:39.284Z,65.66
2022-07-25T04:44:07.689Z,65.84
2022-07-25T04:46:34.772Z,65.83
2022-07-25T04:49:01.548Z,65.94
2022-07-25T04:51:28.298Z,65.22
2022-07-25T04:53:54.845Z,65.15
2022-07-25T04:56:21.438Z,65.75
2022-07-25T04:58:48.073Z,65.32
2022-07-25T05:01:14.995Z,65.08
2022-07-25T05:03:41.832Z,65.26
2022-07-25T05:06:17.438Z,65.29
2022-07-25T05:08:44.172Z,65.35
2022-07-25T05:11:10.778Z,65.58
2022-07-25T05:13:37.416Z,65.42
2022-07-25T05:16:04.319Z,65.04
2022-07-25T05:18:31.066Z,65.24
2022-07-25T05:20:57.677Z,64.79
2022-07-25T05:23:24.243Z,64.29
2022-07-25T05:25:51.164Z,63.88
2022-07-25T05:28:17.881Z,63.87
2022-07-25T05:30:44.543Z,63.66
2022-07-25T05:33:11.087Z,63.74
2022-07-25T05:35:37.791Z,63.73
2022-07-25T05:38:04.758Z,63.36
2022-07-25T05:40:31.325Z,62.76
2022-07-25T05:43:02.751Z,63.04
2022-07-25T05:45:30.204Z,62.81
2022-07-25T05:47:56.759Z,62.40
2022-07-25T05:50:23.483Z,62.06
2022-07-25T05:52:50.192Z,61.24
2022-07-25T05:55:17.643Z,60.70
2022-07-25T05:57:44.563Z,60.50
2022-07-25T06:00:12.040Z,60.31
2022-07-25T06:02:38.856Z,60.42
2022-07-25T06:05:05.700Z,59.65
2022-07-25T06:07:32.265Z,59.38
2022-07-25T06:09:58.882Z,59.28
2022-07-25T06:12:25.598Z,59.42
2022-07-25T06:14:52.403Z,58.75
2022-07-25T06:17:19.084Z,58.51
2022-07-25T06:19:46.083Z,57.43
2022-07-25T06:22:14.545Z,56.54
2022-07-25T06:24:41.512Z,55.86
2022-07-25T06:27:08.681Z,54.99
2022-07-25T06:29:35.439Z,54.25
2022-07-25T06:32:02.132Z,53.83
2022-07-25T06:34:29.079Z,53.08
2022-07-25T06:36:57.415Z,52.02
2022-07-25T06:39:25.167Z,49.72
2022-07-25T06:41:52.064Z,50.64
2022-07-25T06:44:18.609Z,48.15
2022-07-25T06:46:46.302Z,47.65
2022-07-25T06:49:12.945Z,45.73
2022-07-25T06:51:39.578Z,46.56
2022-07-25T06:54:07.479Z,48.18
2022-07-25T06:56:34.733Z,44.73
2022-07-25T06:59:01.439Z,44.40
2022-07-25T07:01:28.193Z,42.79
2022-07-25T07:03:55.032Z,41.97
2022-07-25T07:06:21.701Z,40.78
2022-07-25T07:08:48.363Z,40.49
2022-07-25T07:11:16.689Z,41.03
2022-07-25T07:13:43.327Z,41.19
2022-07-25T07:16:10.235Z,42.52
2022-07-25T07:18:37.393Z,41.00
2022-07-25T07:21:05.581Z,41.28
2022-07-25T07:23:32.900Z,39.89
2022-07-25T07:26:00.004Z,38.81
2022-07-25T07:28:26.705Z,42.47
2022-07-25T07:33:40.095Z,39.94
2022-07-25T07:36:07.080Z,41.28
2022-07-25T07:38:33.792Z,39.42
2022-07-25T07:41:00.344Z,39.35
2022-07-25T07:43:30.115Z,38.38
2022-07-25T07:46:02.893Z,37.83
2022-07-25T07:48:31.275Z,36.96
2022-07-25T07:50:59.354Z,36.32
2022-07-25T07:53:46.063Z,35.99
2022-07-25T07:56:13.244Z,35.82
2022-07-25T07:58:40.212Z,36.10
2022-07-25T08:01:07.488Z,35.65
2022-07-25T08:03:34.272Z,34.98
2022-07-25T08:06:00.842Z,35.21
2022-07-25T08:08:31.178Z,35.49
2022-07-25T08:10:59.276Z,36.53
2022-07-25T08:13:28.873Z,37.68
2022-07-25T08:15:59.037Z,38.08
2022-07-25T08:18:27.632Z,36.72
2022-07-25T08:20:54.587Z,35.86
2022-07-25T08:23:22.383Z,35.48
2022-07-25T08:25:49.411Z,36.28
2022-07-25T08:28:16.110Z,37.79
2022-07-25T08:30:43.446Z,37.05
2022-07-25T08:33:13.547Z,36.98
2022-07-25T08:35:42.043Z,36.91
2022-07-25T08:38:11.673Z,37.68
2022-07-25T08:40:38.557Z,37.16
2022-07-25T08:43:05.253Z,37.40
2022-07-25T08:45:33.442Z,36.51
2022-07-25T08:47:59.999Z,36.35
2022-07-25T08:50:28.982Z,35.49
2022-07-25T08:53:29.883Z,35.08
2022-07-25T08:55:46.738Z,35.99
2022-07-25T08:58:15.393Z,35.87
2022-07-25T09:00:42.726Z,36.67
2022-07-25T09:03:09.798Z,35.90
2022-07-25T09:05:37.458Z,35.62
2022-07-25T09:08:22.189Z,35.38
2022-07-25T09:10:53.037Z,35.06
2022-07-25T09:13:22.229Z,34.73
2022-07-25T09:15:54.214Z,35.89
2022-07-25T09:18:25.462Z,36.83
2022-07-25T09:20:53.911Z,36.17
2022-07-25T09:23:34.108Z,36.18
2022-07-25T09:26:10.099Z,37.13
2022-07-25T09:28:42.491Z,36.20
2022-07-25T09:31:09.903Z,36.09
2022-07-25T09:33:49.097Z,35.74
2022-07-25T09:36:16.236Z,35.95
2022-07-25T09:38:56.960Z,35.77
2022-07-25T09:41:37.005Z,35.50
2022-07-25T09:44:05.139Z,35.35
2022-07-25T09:46:32.607Z,35.08
2022-07-25T09:49:00.418Z,34.73
2022-07-25T09:51:28.010Z,34.59
2022-07-25T09:53:54.925Z,34.41
2022-07-25T09:56:21.494Z,33.68
2022-07-25T09:58:48.095Z,34.56
2022-07-25T10:01:20.687Z,35.70
2022-07-25T10:03:51.928Z,35.88
2022-07-25T10:06:28.171Z,36.12
2022-07-25T10:08:55.090Z,35.96
2022-07-25T10:11:26.979Z,35.67
2022-07-25T10:13:54.790Z,36.09
2022-07-25T10:16:24.092Z,35.83
2022-07-25T10:18:52.951Z,35.59
2022-07-25T10:21:26.676Z,34.87
2022-07-25T10:23:58.740Z,35.24
2022-07-25T10:26:25.720Z,34.44
2022-07-25T10:28:54.356Z,34.04
2022-07-25T10:31:23.079Z,33.37
2022-07-25T10:33:55.452Z,33.47
2022-07-25T10:36:23.181Z,33.46
2022-07-25T10:38:57.310Z,33.34
2022-07-25T10:41:26.405Z,34.16
2022-07-25T10:43:57.402Z,34.15
2022-07-25T10:46:27.994Z,34.14
2022-07-25T10:49:03.341Z,33.65
2022-07-25T10:51:38.312Z,33.35
2022-07-25T10:54:15.841Z,32.33
2022-07-25T10:56:59.053Z,32.20
2022-07-25T10:59:38.287Z,31.87
2022-07-25T11:02:07.373Z,31.49
2022-07-25T11:04:34.638Z,31.31
2022-07-25T11:07:16.279Z,31.16
2022-07-25T11:09:44.483Z,31.75
2022-07-25T11:12:15.372Z,32.27
2022-07-25T11:14:42.921Z,32.14
2022-07-25T11:17:39.077Z,31.71
2022-07-25T11:20:08.102Z,31.96
2022-07-25T11:22:35.771Z,31.42
2022-07-25T11:25:11.986Z,31.09
2022-07-25T11:27:38.597Z,30.62
2022-07-25T11:30:16.521Z,30.70
2022-07-25T11:32:52.122Z,30.98
2022-07-25T11:35:22.886Z,31.98
2022-07-25T11:37:50.928Z,32.33
2022-07-25T11:40:18.633Z,31.75
2022-07-25T11:42:48.756Z,31.47
2022-07-25T11:45:26.842Z,30.80
2022-07-25T11:48:13.539Z,30.28
2022-07-25T11:50:44.439Z,30.61
2022-07-25T11:53:17.195Z,30.36
2022-07-25T11:55:44.084Z,29.92
2022-07-25T11:58:13.068Z,30.70
2022-07-25T12:00:43.235Z,31.02
2022-07-25T12:03:21.063Z,30.49
2022-07-25T12:05:49.208Z,30.86
2022-07-25T12:08:18.696Z,31.12
2022-07-25T12:10:48.715Z,30.62
2022-07-25T12:13:26.338Z,29.42
2022-07-25T12:15:53.578Z,29.97
2022-07-25T12:18:20.230Z,29.48
2022-07-25T12:20:47.156Z,29.03
2022-07-25T12:23:14.614Z,28.52
2022-07-25T12:25:44.253Z,27.38
2022-07-25T12:28:11.398Z,27.15
2022-07-25T12:30:39.541Z,26.99
2022-07-25T12:33:06.642Z,26.52
2022-07-25T12:35:33.556Z,27.31
2022-07-25T12:38:00.372Z,27.20
2022-07-25T12:40:27.071Z,27.74
2022-07-25T12:42:53.806Z,27.98
2022-07-25T12:45:20.366Z,27.54
2022-07-25T12:47:48.222Z,26.77
2022-07-25T12:50:16.639Z,27.03
2022-07-25T12:52:44.159Z,26.99
2022-07-25T12:55:16.927Z,27.03
2022-07-25T12:57:44.517Z,26.92
2022-07-25T13:00:15.711Z,27.61
2022-07-25T13:02:43.159Z,28.22
2022-07-25T13:05:11.002Z,28.22
2022-07-25T13:07:38.720Z,29.08
2022-07-25T13:10:07.741Z,32.22
2022-07-25T13:12:35.317Z,33.80
2022-07-25T13:15:03.000Z,33.46
2022-07-25T13:17:30.132Z,34.36
2022-07-25T13:19:56.907Z,32.54
2022-07-25T13:22:24.929Z,30.88
2022-07-25T13:24:53.151Z,30.75
2022-07-25T13:27:21.084Z,30.48
2022-07-25T13:29:47.737Z,30.00
2022-07-25T13:32:14.413Z,30.82
2022-07-25T13:34:41.083Z,30.83
2022-07-25T13:37:07.829Z,32.08
2022-07-25T13:39:35.788Z,32.74
2022-07-25T13:42:03.448Z,33.42
2022-07-25T13:44:30.085Z,32.54
2022-07-25T13:46:58.566Z,31.88
2022-07-25T13:49:25.998Z,31.78
2022-07-25T13:51:52.670Z,31.85
2022-07-25T13:54:19.318Z,32.18
2022-07-25T13:56:46.752Z,30.93
2022-07-25T13:59:20.550Z,31.61
2022-07-25T14:01:49.566Z,31.07
2022-07-25T14:04:16.745Z,31.05
2022-07-25T14:06:43.411Z,31.74
2022-07-25T14:09:10.470Z,31.74
2022-07-25T14:11:37.546Z,31.41
2022-07-25T14:14:04.191Z,30.66
2022-07-25T14:16:31.026Z,30.47
2022-07-25T14:18:57.754Z,30.24
2022-07-25T14:21:25.420Z,30.68
2022-07-25T14:23:52.484Z,30.34
2022-07-25T14:26:19.556Z,29.70
2022-07-25T14:28:46.336Z,29.74
2022-07-25T14:31:13.097Z,29.59
2022-07-25T14:33:40.708Z,29.60
2022-07-25T14:36:09.697Z,29.05
2022-07-25T14:38:36.634Z,29.16
2022-07-25T14:41:05.712Z,29.84
2022-07-25T14:43:35.677Z,30.00
2022-07-25T14:46:02.230Z,30.18
2022-07-25T14:48:28.966Z,30.52
2022-07-25T14:50:55.758Z,30.98
2022-07-25T14:53:22.368Z,31.54
2022-07-25T14:55:48.969Z,31.54
2022-07-25T14:58:15.791Z,31.76
2022-07-25T15:00:43.592Z,31.80
2022-07-25T15:03:10.222Z,31.94
2022-07-25T15:05:38.584Z,32.13
2022-07-25T15:08:06.277Z,32.22
2022-07-25T15:10:33.056Z,32.58
2022-07-25T15:13:28.239Z,32.52
2022-07-25T15:15:46.915Z,32.92
2022-07-25T15:18:14.979Z,33.37
2022-07-25T15:20:41.913Z,33.23
2022-07-25T15:23:08.572Z,32.59
2022-07-25T15:26:00.474Z,31.92
2022-07-25T15:28:21.942Z,32.24
2022-07-25T15:30:48.587Z,32.33
2022-07-25T15:33:15.493Z,32.60
2022-07-25T15:35:44.068Z,32.26
2022-07-25T15:38:10.929Z,31.43
2022-07-25T15:40:37.725Z,30.76
2022-07-25T15:43:04.489Z,30.03
2022-07-25T15:45:33.002Z,30.55
2022-07-25T15:48:01.526Z,29.72
2022-07-25T15:50:28.189Z,29.75
2022-07-25T15:52:54.873Z,28.72
2022-07-25T15:55:21.543Z,29.05
2022-07-25T15:57:48.199Z,28.77
2022-07-25T16:00:15.149Z,28.93
2022-07-25T16:02:41.713Z,28.56
2022-07-25T16:05:08.836Z,28.78
2022-07-25T16:07:35.793Z,28.70
2022-07-25T16:10:03.026Z,29.60
2022-07-25T16:12:30.043Z,29.90
2022-07-25T16:14:56.747Z,29.58
2022-07-25T16:17:25.957Z,29.60
2022-07-25T16:19:54.078Z,30.27
2022-07-25T16:22:22.012Z,29.57
2022-07-25T16:24:49.229Z,29.51
2022-07-25T16:27:16.208Z,29.35
2022-07-25T16:29:43.059Z,29.63
2022-07-25T16:32:10.879Z,28.79
2022-07-25T16:34:37.610Z,29.42
2022-07-25T16:37:05.045Z,29.91
2022-07-25T16:39:31.992Z,30.29
2022-07-25T16:41:58.808Z,30.94
2022-07-25T16:44:25.552Z,30.43
2022-07-25T16:46:53.100Z,31.02
2022-07-25T16:49:19.926Z,31.21
2022-07-25T16:51:46.782Z,31.46
2022-07-25T16:54:13.839Z,31.47
2022-07-25T16:56:40.929Z,33.95
2022-07-25T16:59:08.872Z,34.78
2022-07-25T17:01:35.817Z,36.21
2022-07-25T17:04:03.333Z,36.57
2022-07-25T17:06:30.235Z,37.22
2022-07-25T17:08:56.947Z,38.13
2022-07-25T17:11:23.619Z,37.77
2022-07-25T17:13:50.559Z,38.30
2022-07-25T17:16:17.496Z,38.50
2022-07-25T17:18:44.222Z,38.72
2022-07-25T17:21:10.996Z,38.87
2022-07-25T17:23:38.101Z,39.44
2022-07-25T17:26:05.490Z,39.58
2022-07-25T17:28:32.525Z,40.01
2022-07-25T17:30:59.386Z,40.45
2022-07-25T17:33:26.675Z,40.21
2022-07-25T17:35:53.549Z,40.62
2022-07-25T17:38:25.425Z,40.68
2022-07-25T17:40:53.109Z,41.01
2022-07-25T17:43:19.788Z,41.24
2022-07-25T17:45:46.453Z,41.55
2022-07-25T17:48:13.051Z,41.91
2022-07-25T17:50:39.692Z,41.72
2022-07-25T17:53:06.519Z,42.14
2022-07-25T17:55:38.175Z,42.26
2022-07-25T17:58:05.546Z,41.96
2022-07-25T18:00:32.486Z,42.07
2022-07-25T18:02:59.228Z,42.46
2022-07-25T18:05:26.044Z,42.54
2022-07-25T18:07:53.684Z,42.58
2022-07-25T18:10:21.885Z,42.92
2022-07-25T18:12:49.452Z,43.45
2022-07-25T18:15:16.324Z,43.65
2022-07-25T18:17:44.853Z,43.80
2022-07-25T18:20:13.124Z,43.66
2022-07-25T18:22:41.233Z,43.63
2022-07-25T18:25:11.057Z,43.29
2022-07-25T18:27:40.756Z,43.40
2022-07-25T18:30:08.155Z,43.83
2022-07-25T18:32:35.653Z,44.12
2022-07-25T18:35:02.304Z,44.52
2022-07-25T18:37:29.084Z,44.82
2022-07-25T18:39:55.697Z,45.20
2022-07-25T18:42:26.316Z,45.30
2022-07-25T18:44:56.515Z,45.49
2022-07-25T18:47:25.595Z,45.74
2022-07-25T18:49:55.002Z,46.05
2022-07-25T18:52:22.107Z,47.50
2022-07-25T18:54:49.129Z,49.52
2022-07-25T18:57:16.136Z,52.24
2022-07-25T18:59:43.377Z,54.21
2022-07-25T19:02:10.605Z,53.28
2022-07-25T19:04:37.805Z,55.18
2022-07-25T19:07:05.102Z,54.30
2022-07-25T19:09:32.280Z,52.22
2022-07-25T19:12:01.691Z,50.73
2022-07-25T19:14:30.941Z,49.99
2022-07-25T19:16:59.446Z,48.88
2022-07-25T19:19:27.030Z,48.98
2022-07-25T19:21:54.032Z,48.91
2022-07-25T19:24:21.161Z,48.93
2022-07-25T19:26:49.064Z,48.80
2022-07-25T19:29:16.644Z,48.81
2022-07-25T19:31:43.585Z,49.17
2022-07-25T19:34:10.869Z,49.19
2022-07-25T19:36:37.939Z,49.58
2022-07-25T19:39:06.128Z,49.94
2022-07-25T19:41:33.005Z,50.16
2022-07-25T19:43:59.598Z,50.37
2022-07-25T19:46:30.438Z,50.52
2022-07-25T19:48:57.043Z,50.93
2022-07-25T19:51:23.679Z,51.09
2022-07-25T19:53:50.266Z,51.28
2022-07-25T19:56:16.917Z,51.38
2022-07-25T19:58:45.087Z,51.82
2022-07-25T20:01:12.930Z,52.18
2022-07-25T20:03:40.314Z,52.17
2022-07-25T20:06:08.465Z,52.28
2022-07-25T20:08:36.661Z,52.85
2022-07-25T20:11:03.649Z,52.86
2022-07-25T20:13:30.333Z,52.88
2022-07-25T20:15:57.364Z,53.05
2022-07-25T20:18:24.201Z,52.80
2022-07-25T20:20:51.086Z,53.15
2022-07-25T20:23:17.895Z,53.32
2022-07-25T20:25:44.553Z,53.31
2022-07-25T20:28:11.455Z,53.58
2022-07-25T20:30:38.520Z,53.99
2022-07-25T20:33:09.345Z,54.27
2022-07-25T20:35:37.994Z,54.25
2022-07-25T20:38:10.035Z,54.75
2022-07-25T20:40:48.019Z,54.47
2022-07-25T20:43:16.177Z,54.61
2022-07-25T20:45:43.217Z,54.66
2022-07-25T20:48:09.849Z,55.05
2022-07-25T20:50:37.752Z,54.37
2022-07-25T20:53:08.220Z,54.54
2022-07-25T20:55:35.906Z,54.71
2022-07-25T20:58:03.809Z,54.45
2022-07-25T21:00:31.026Z,54.64
2022-07-25T21:02:58.664Z,54.18
2022-07-25T21:05:26.243Z,54.16
2022-07-25T21:07:53.073Z,54.27
2022-07-25T21:10:19.825Z,54.36
2022-07-25T21:12:46.505Z,53.96
2022-07-25T21:15:13.249Z,54.20
2022-07-25T21:17:40.254Z,54.14
2022-07-25T21:20:09.201Z,53.46
2022-07-25T21:22:36.008Z,53.78
2022-07-25T21:25:03.394Z,53.68
2022-07-25T21:27:30.393Z,53.74
2022-07-25T21:29:57.072Z,53.97
2022-07-25T21:32:23.757Z,53.80
2022-07-25T21:34:51.884Z,53.89
2022-07-25T21:37:18.671Z,53.71
2022-07-25T21:39:45.926Z,53.60
2022-07-25T21:42:12.829Z,53.91
2022-07-25T21:44:40.755Z,53.83
2022-07-25T21:47:08.285Z,53.28
2022-07-25T21:50:10.532Z,53.58
2022-07-25T21:52:39.851Z,53.38
2022-07-25T21:55:06.633Z,53.15
2022-07-25T21:57:33.226Z,53.23
2022-07-25T21:59:59.834Z,53.02
2022-07-25T22:02:26.594Z,52.85
2022-07-25T22:04:53.298Z,53.04
2022-07-25T22:07:19.989Z,53.22
2022-07-25T22:09:46.634Z,53.24
2022-07-25T22:12:14.780Z,53.25
2022-07-25T22:14:41.461Z,53.32
2022-07-25T22:17:08.431Z,53.18
2022-07-25T22:19:35.156Z,52.96
2022-07-25T22:22:01.855Z,52.70
2022-07-25T22:24:28.373Z,53.06
2022-07-25T22:26:55.941Z,52.89
2022-07-25T22:29:22.572Z,52.80
2022-07-25T22:31:49.178Z,52.70
2022-07-25T22:34:16.047Z,53.20
2022-07-25T22:36:42.974Z,52.99
2022-07-25T22:39:11.085Z,53.35
2022-07-25T22:41:38.091Z,53.16
2022-07-25T22:44:05.037Z,53.27
2022-07-25T22:46:31.841Z,53.34
2022-07-25T22:48:59.245Z,52.97
2022-07-25T22:51:26.750Z,52.82
2022-07-25T22:53:53.723Z,52.69
2022-07-25T22:56:20.999Z,52.70
2022-07-25T22:58:49.039Z,52.89
2022-07-25T23:01:16.087Z,53.04
2022-07-25T23:03:42.739Z,52.67
2022-07-25T23:06:09.638Z,52.54
2022-07-25T23:08:36.276Z,52.86
2022-07-25T23:11:03.702Z,52.73
2022-07-25T23:13:30.638Z,52.83
2022-07-25T23:15:57.326Z,52.59
2022-07-25T23:18:24.047Z,53.04
2022-07-25T23:20:50.624Z,53.14
2022-07-25T23:23:17.393Z,53.15
2022-07-25T23:25:44.094Z,53.38
2022-07-25T23:28:10.817Z,53.37
2022-07-25T23:30:40.414Z,53.46
2022-07-25T23:33:09.579Z,53.67
2022-07-25T23:35:37.198Z,54.07
2022-07-25T23:38:03.975Z,54.09
2022-07-25T23:40:30.705Z,54.11
2022-07-25T23:42:57.425Z,53.63
2022-07-25T23:45:25.009Z,53.86
2022-07-25T23:47:55.085Z,53.69
2022-07-25T23:50:22.610Z,53.88
2022-07-25T23:52:49.354Z,54.24
2022-07-25T23:55:16.013Z,54.43
2022-07-25T23:57:43.206Z,54.37
